createdAt,value
2024-05-09T00:00:18.162Z,10
2024-05-09T00:01:10.877Z,12
2024-05-09T00:02:10.965Z,9
2024-05-09T00:03:11.969Z,9
2024-05-09T00:04:10.956Z,9
2024-05-09T00:05:11.348Z,9
2024-05-09T00:06:11.049Z,11
2024-05-09T00:07:10.920Z,11
2024-05-09T00:08:11.227Z,9
2024-05-09T00:09:10.923Z,10
2024-05-09T00:10:18.274Z,10
2024-05-09T00:11:11.039Z,8
2024-05-09T00:12:11.079Z,9
2024-05-09T00:13:11.325Z,8
2024-05-09T00:14:11.046Z,10
2024-05-09T00:15:10.845Z,8
2024-05-09T00:16:10.896Z,8
2024-05-09T00:17:10.912Z,9
2024-05-09T00:18:11.136Z,9
2024-05-09T00:19:11.016Z,8
2024-05-09T00:20:17.625Z,9
2024-05-09T00:21:11.039Z,10
2024-05-09T00:22:10.932Z,10
2024-05-09T00:23:12.432Z,10
2024-05-09T00:24:10.993Z,9
2024-05-09T00:25:11.066Z,10
2024-05-09T00:26:11.040Z,9
2024-05-09T00:27:13.244Z,10
2024-05-09T00:28:10.933Z,8
2024-05-09T00:29:11.001Z,10
2024-05-09T00:30:17.449Z,10
2024-05-09T00:31:10.958Z,10
2024-05-09T00:32:11.039Z,8
2024-05-09T00:33:11.753Z,8
2024-05-09T00:34:11.114Z,9
2024-05-09T00:35:11.009Z,9
2024-05-09T00:36:10.847Z,11
2024-05-09T00:37:10.943Z,9
2024-05-09T00:38:10.911Z,9
2024-05-09T00:39:11.000Z,11
2024-05-09T00:40:18.300Z,11
2024-05-09T00:41:10.926Z,11
2024-05-09T00:42:10.838Z,10
2024-05-09T00:43:11.404Z,8
2024-05-09T00:44:10.876Z,9
2024-05-09T00:45:10.853Z,9
2024-05-09T00:46:10.846Z,9
2024-05-09T00:47:10.960Z,10
2024-05-09T00:48:12.577Z,9
2024-05-09T00:49:10.910Z,8
2024-05-09T00:50:15.976Z,11
2024-05-09T00:51:11.068Z,9
2024-05-09T00:52:10.848Z,10
2024-05-09T00:53:10.967Z,9
2024-05-09T00:54:10.852Z,9
2024-05-09T00:55:10.832Z,9
2024-05-09T00:56:10.884Z,8
2024-05-09T00:57:10.842Z,8
2024-05-09T00:58:10.842Z,8
2024-05-09T00:59:10.886Z,9
2024-05-09T01:00:22.382Z,11
2024-05-09T01:01:10.882Z,10
2024-05-09T01:02:10.942Z,9
2024-05-09T01:03:12.876Z,10
2024-05-09T01:04:10.908Z,10
2024-05-09T01:05:10.997Z,9
2024-05-09T01:06:10.852Z,10
2024-05-09T01:07:10.846Z,9
2024-05-09T01:08:11.146Z,9
2024-05-09T01:09:10.833Z,9
2024-05-09T01:10:17.040Z,8
2024-05-09T01:11:10.940Z,10
2024-05-09T01:12:10.990Z,9
2024-05-09T01:13:10.854Z,9
2024-05-09T01:14:10.904Z,10
2024-05-09T01:15:10.856Z,8
2024-05-09T01:16:10.842Z,9
2024-05-09T01:17:10.927Z,11
2024-05-09T01:18:12.226Z,10
2024-05-09T01:19:11.043Z,9
2024-05-09T01:20:19.579Z,8
2024-05-09T01:21:10.970Z,10
2024-05-09T01:22:11.178Z,10
2024-05-09T01:23:11.280Z,10
2024-05-09T01:24:10.855Z,8
2024-05-09T01:25:10.861Z,9
2024-05-09T01:26:10.920Z,11
2024-05-09T01:27:10.925Z,9
2024-05-09T01:28:10.859Z,9
2024-05-09T01:29:10.889Z,10
2024-05-09T01:30:17.180Z,9
2024-05-09T01:31:10.855Z,9
2024-05-09T01:32:11.036Z,10
2024-05-09T01:33:12.311Z,9
2024-05-09T01:34:10.911Z,10
2024-05-09T01:35:10.879Z,9
2024-05-09T01:36:10.857Z,11
2024-05-09T01:37:10.858Z,10
2024-05-09T01:38:10.871Z,11
2024-05-09T01:39:10.856Z,11
2024-05-09T01:40:15.039Z,10
2024-05-09T01:41:10.910Z,11
2024-05-09T01:42:10.856Z,12
2024-05-09T01:43:11.945Z,10
2024-05-09T01:44:10.867Z,9
2024-05-09T01:45:10.856Z,10
2024-05-09T01:46:10.863Z,9
2024-05-09T01:47:11.022Z,9
2024-05-09T01:48:11.556Z,11
2024-05-09T01:49:10.977Z,10
2024-05-09T01:50:11.142Z,9
2024-05-09T01:51:11.121Z,11
2024-05-09T01:52:10.850Z,9
2024-05-09T01:53:11.155Z,10
2024-05-09T01:54:10.857Z,10
2024-05-09T01:55:10.856Z,9
2024-05-09T01:56:10.883Z,10
2024-05-09T01:57:10.861Z,10
2024-05-09T01:58:10.888Z,10
2024-05-09T01:59:10.896Z,9
2024-05-09T02:00:15.551Z,8
2024-05-09T02:01:10.873Z,12
2024-05-09T02:02:11.029Z,9
2024-05-09T02:03:13.897Z,12
2024-05-09T02:04:11.215Z,10
2024-05-09T02:05:11.188Z,11
2024-05-09T02:06:10.996Z,8
2024-05-09T02:07:10.854Z,11
2024-05-09T02:08:10.966Z,9
2024-05-09T02:09:10.858Z,9
2024-05-09T02:10:16.569Z,10
2024-05-09T02:11:10.982Z,10
2024-05-09T02:12:11.104Z,11
2024-05-09T02:13:10.861Z,11
2024-05-09T02:14:10.929Z,10
2024-05-09T02:15:10.854Z,10
2024-05-09T02:16:10.852Z,10
2024-05-09T02:17:10.882Z,11
2024-05-09T02:18:11.227Z,11
2024-05-09T02:19:11.021Z,10
2024-05-09T02:20:18.757Z,10
2024-05-09T02:21:10.892Z,12
2024-05-09T02:22:10.879Z,11
2024-05-09T02:23:10.985Z,10
2024-05-09T02:24:10.930Z,11
2024-05-09T02:25:10.883Z,12
2024-05-09T02:26:10.920Z,12
2024-05-09T02:27:10.866Z,12
2024-05-09T02:28:10.869Z,10
2024-05-09T02:29:11.044Z,12
2024-05-09T02:30:18.755Z,11
2024-05-09T02:31:10.870Z,11
2024-05-09T02:32:10.933Z,12
2024-05-09T02:33:12.922Z,10
2024-05-09T02:34:10.971Z,11
2024-05-09T02:35:10.892Z,9
2024-05-09T02:36:10.869Z,11
2024-05-09T02:37:10.867Z,9
2024-05-09T02:38:11.169Z,10
2024-05-09T02:39:10.865Z,10
2024-05-09T02:40:14.728Z,10
2024-05-09T02:41:10.916Z,8
2024-05-09T02:42:10.869Z,11
2024-05-09T02:43:11.613Z,11
2024-05-09T02:44:10.895Z,10
2024-05-09T02:45:10.865Z,10
2024-05-09T02:46:10.872Z,11
2024-05-09T02:47:10.939Z,10
2024-05-09T02:48:11.730Z,12
2024-05-09T02:49:11.053Z,11
2024-05-09T02:50:13.437Z,11
2024-05-09T02:51:11.007Z,10
2024-05-09T02:52:10.886Z,9
2024-05-09T02:53:10.946Z,12
2024-05-09T02:54:10.872Z,10
2024-05-09T02:55:10.860Z,12
2024-05-09T02:56:10.908Z,12
2024-05-09T02:57:10.871Z,11
2024-05-09T02:58:10.979Z,11
2024-05-09T02:59:10.900Z,10
2024-05-09T03:00:18.471Z,11
2024-05-09T03:01:10.908Z,11
2024-05-09T03:02:10.955Z,10
2024-05-09T03:03:13.343Z,10
2024-05-09T03:04:10.937Z,12
2024-05-09T03:05:10.916Z,9
2024-05-09T03:06:10.868Z,12
2024-05-09T03:07:10.889Z,11
2024-05-09T03:08:11.155Z,9
2024-05-09T03:09:10.872Z,12
2024-05-09T03:10:18.333Z,11
2024-05-09T03:11:10.987Z,12
2024-05-09T03:12:10.959Z,11
2024-05-09T03:13:11.285Z,13
2024-05-09T03:14:11.029Z,10
2024-05-09T03:15:10.871Z,13
2024-05-09T03:16:10.883Z,10
2024-05-09T03:17:10.934Z,12
2024-05-09T03:18:11.636Z,11
2024-05-09T03:19:11.075Z,12
2024-05-09T03:20:17.576Z,11
2024-05-09T03:21:10.912Z,10
2024-05-09T03:22:10.872Z,11
2024-05-09T03:23:10.906Z,12
2024-05-09T03:24:10.878Z,9
2024-05-09T03:25:10.872Z,10
2024-05-09T03:26:10.917Z,11
2024-05-09T03:27:10.881Z,10
2024-05-09T03:28:10.878Z,10
2024-05-09T03:29:10.959Z,12
2024-05-09T03:30:15.489Z,10
2024-05-09T03:31:10.880Z,13
2024-05-09T03:32:10.975Z,11
2024-05-09T03:33:11.240Z,12
2024-05-09T03:34:10.940Z,12
2024-05-09T03:35:10.952Z,10
2024-05-09T03:36:11.484Z,10
2024-05-09T03:37:10.872Z,11
2024-05-09T03:38:10.977Z,10
2024-05-09T03:39:10.888Z,8
2024-05-09T03:40:17.684Z,11
2024-05-09T03:41:10.920Z,10
2024-05-09T03:42:10.883Z,11
2024-05-09T03:43:10.872Z,11
2024-05-09T03:44:10.989Z,10
2024-05-09T03:45:10.886Z,12
2024-05-09T03:46:10.888Z,10
2024-05-09T03:47:10.932Z,8
2024-05-09T03:48:11.251Z,11
2024-05-09T03:49:10.982Z,10
2024-05-09T03:50:18.275Z,12
2024-05-09T03:51:11.074Z,11
2024-05-09T03:52:10.888Z,10
2024-05-09T03:53:11.101Z,10
2024-05-09T03:54:10.878Z,11
2024-05-09T03:55:10.881Z,12
2024-05-09T03:56:10.946Z,9
2024-05-09T03:57:10.889Z,11
2024-05-09T03:58:10.882Z,13
2024-05-09T03:59:10.996Z,10
2024-05-09T04:00:17.671Z,11
2024-05-09T04:01:11.003Z,11
2024-05-09T04:02:10.934Z,11
2024-05-09T04:03:12.603Z,12
2024-05-09T04:04:10.953Z,11
2024-05-09T04:05:10.938Z,11
2024-05-09T04:07:10.887Z,12
2024-05-09T04:08:11.387Z,11
2024-05-09T04:09:10.903Z,13
2024-05-09T04:10:20.619Z,11
2024-05-09T04:11:10.998Z,9
2024-05-09T04:12:10.997Z,10
2024-05-09T04:13:10.938Z,12
2024-05-09T04:14:10.923Z,13
2024-05-09T04:15:13.405Z,10
2024-05-09T04:16:10.897Z,12
2024-05-09T04:17:10.946Z,10
2024-05-09T04:18:11.087Z,11
2024-05-09T04:19:10.968Z,9
2024-05-09T04:20:21.051Z,13
2024-05-09T04:21:10.939Z,13
2024-05-09T04:22:10.893Z,10
2024-05-09T04:23:11.160Z,12
2024-05-09T04:24:10.896Z,11
2024-05-09T04:25:10.889Z,13
2024-05-09T04:26:10.924Z,12
2024-05-09T04:27:10.889Z,12
2024-05-09T04:28:10.944Z,11
2024-05-09T04:29:11.021Z,12
2024-05-09T04:30:18.443Z,10
2024-05-09T04:31:10.894Z,9
2024-05-09T04:32:10.954Z,9
2024-05-09T04:34:11.034Z,12
2024-05-09T04:35:10.935Z,9
2024-05-09T04:36:10.912Z,12
2024-05-09T04:38:10.968Z,8
2024-05-09T04:39:10.963Z,12
2024-05-09T04:40:20.924Z,13
2024-05-09T04:41:10.937Z,12
2024-05-09T04:42:10.901Z,10
2024-05-09T04:43:10.900Z,12
2024-05-09T04:44:10.946Z,10
2024-05-09T04:45:10.902Z,12
2024-05-09T04:46:10.903Z,11
2024-05-09T04:47:11.014Z,13
2024-05-09T04:48:11.304Z,10
2024-05-09T04:49:11.008Z,15
2024-05-09T04:50:14.541Z,11
2024-05-09T04:51:10.914Z,13
2024-05-09T04:52:10.897Z,12
2024-05-09T04:53:11.643Z,11
2024-05-09T04:54:22.097Z,10
2024-05-09T04:55:10.906Z,10
2024-05-09T04:56:10.924Z,12
2024-05-09T04:57:10.894Z,10
2024-05-09T04:58:10.902Z,12
2024-05-09T04:59:10.916Z,10
2024-05-09T05:00:14.893Z,13
2024-05-09T05:01:11.027Z,13
2024-05-09T05:02:11.027Z,12
2024-05-09T05:03:13.630Z,12
2024-05-09T05:04:10.995Z,12
2024-05-09T05:05:12.068Z,12
2024-05-09T05:06:13.359Z,11
2024-05-09T05:07:10.907Z,13
2024-05-09T05:08:11.831Z,12
2024-05-09T05:09:10.900Z,10
2024-05-09T05:10:15.034Z,12
2024-05-09T05:11:10.959Z,13
2024-05-09T05:12:11.026Z,13
2024-05-09T05:13:10.893Z,11
2024-05-09T05:14:10.957Z,13
2024-05-09T05:15:10.908Z,12
2024-05-09T05:16:10.926Z,12
2024-05-09T05:17:10.949Z,12
2024-05-09T05:18:11.171Z,15
2024-05-09T05:19:13.413Z,12
2024-05-09T05:20:15.211Z,13
2024-05-09T05:21:10.939Z,13
2024-05-09T05:22:10.904Z,13
2024-05-09T05:23:10.952Z,13
2024-05-09T05:24:10.938Z,13
2024-05-09T05:25:10.905Z,12
2024-05-09T05:26:10.950Z,13
2024-05-09T05:27:10.906Z,12
2024-05-09T05:28:10.978Z,13
2024-05-09T05:29:10.949Z,10
2024-05-09T05:30:17.588Z,14
2024-05-09T05:31:11.008Z,11
2024-05-09T05:32:11.007Z,14
2024-05-09T05:33:11.092Z,12
2024-05-09T05:34:10.975Z,13
2024-05-09T05:35:10.930Z,13
2024-05-09T05:36:10.967Z,16
2024-05-09T05:37:10.901Z,12
2024-05-09T05:38:11.231Z,14
2024-05-09T05:39:10.906Z,12
2024-05-09T05:40:14.635Z,12
2024-05-09T05:41:10.973Z,13
2024-05-09T05:42:10.920Z,13
2024-05-09T05:43:11.198Z,13
2024-05-09T05:44:10.917Z,12
2024-05-09T05:45:10.904Z,14
2024-05-09T05:46:10.986Z,15
2024-05-09T05:47:11.016Z,13
2024-05-09T05:48:11.143Z,14
2024-05-09T05:49:11.099Z,13
2024-05-09T05:50:20.746Z,13
2024-05-09T05:51:10.959Z,12
2024-05-09T05:52:10.937Z,13
2024-05-09T05:53:11.096Z,11
2024-05-09T05:54:10.930Z,13
2024-05-09T05:55:11.295Z,11
2024-05-09T05:56:10.941Z,11
2024-05-09T05:57:10.908Z,13
2024-05-09T05:58:10.979Z,14
2024-05-09T05:59:13.413Z,12
2024-05-09T06:00:17.976Z,12
2024-05-09T06:01:10.932Z,11
2024-05-09T06:02:11.043Z,12
2024-05-09T06:03:11.335Z,13
2024-05-09T06:04:10.994Z,13
2024-05-09T06:05:11.016Z,12
2024-05-09T06:07:10.908Z,13
2024-05-09T06:08:10.932Z,12
2024-05-09T06:09:10.916Z,12
2024-05-09T06:10:17.363Z,12
2024-05-09T06:11:11.412Z,12
2024-05-09T06:12:11.032Z,13
2024-05-09T06:13:11.692Z,14
2024-05-09T06:14:10.951Z,12
2024-05-09T06:15:10.912Z,13
2024-05-09T06:16:11.521Z,13
2024-05-09T06:17:11.020Z,13
2024-05-09T06:18:12.224Z,16
2024-05-09T06:19:11.138Z,15
2024-05-09T06:20:20.147Z,18
2024-05-09T06:22:10.918Z,12
2024-05-09T06:23:11.071Z,12
2024-05-09T06:24:10.924Z,15
2024-05-09T06:25:10.913Z,14
2024-05-09T06:26:10.988Z,12
2024-05-09T06:27:10.914Z,12
2024-05-09T06:28:10.941Z,11
2024-05-09T06:29:10.947Z,13
2024-05-09T06:30:21.149Z,13
2024-05-09T06:31:10.926Z,13
2024-05-09T06:32:11.039Z,13
2024-05-09T06:33:12.979Z,13
2024-05-09T06:34:10.982Z,14
2024-05-09T06:35:10.978Z,13
2024-05-09T06:36:10.931Z,14
2024-05-09T06:37:10.937Z,12
2024-05-09T06:38:11.590Z,13
2024-05-09T06:39:10.927Z,12
2024-05-09T06:40:12.551Z,14
2024-05-09T06:41:10.935Z,15
2024-05-09T06:42:10.924Z,14
2024-05-09T06:43:10.918Z,14
2024-05-09T06:44:10.950Z,12
2024-05-09T06:45:10.933Z,12
2024-05-09T06:46:10.926Z,13
2024-05-09T06:47:10.977Z,12
2024-05-09T06:48:11.247Z,14
2024-05-09T06:49:11.019Z,14
2024-05-09T06:50:19.632Z,12
2024-05-09T06:51:11.009Z,13
2024-05-09T06:52:10.923Z,14
2024-05-09T06:53:10.972Z,12
2024-05-09T06:54:10.943Z,13
2024-05-09T06:55:10.951Z,14
2024-05-09T06:56:10.952Z,11
2024-05-09T06:57:10.931Z,15
2024-05-09T06:58:10.946Z,15
2024-05-09T06:59:11.002Z,14
2024-05-09T07:00:15.639Z,13
2024-05-09T07:01:11.010Z,16
2024-05-09T07:02:11.014Z,14
2024-05-09T07:03:12.480Z,13
2024-05-09T07:04:11.197Z,13
2024-05-09T07:05:10.977Z,13
2024-05-09T07:06:10.979Z,15
2024-05-09T07:07:10.924Z,14
2024-05-09T07:08:11.062Z,14
2024-05-09T07:09:10.942Z,15
2024-05-09T07:10:17.779Z,12
2024-05-09T07:11:11.008Z,15
2024-05-09T07:12:11.299Z,15
2024-05-09T07:13:10.965Z,15
2024-05-09T07:14:10.968Z,13
2024-05-09T07:15:10.935Z,14
2024-05-09T07:16:10.934Z,14
2024-05-09T07:17:10.988Z,14
2024-05-09T07:18:11.178Z,14
2024-05-09T07:19:11.404Z,12
2024-05-09T07:20:16.207Z,14
2024-05-09T07:21:11.076Z,12
2024-05-09T07:22:10.934Z,14
2024-05-09T07:23:11.353Z,14
2024-05-09T07:24:10.936Z,12
2024-05-09T07:25:10.935Z,17
2024-05-09T07:26:10.951Z,14
2024-05-09T07:27:10.943Z,14
2024-05-09T07:28:10.946Z,13
2024-05-09T07:29:10.967Z,13
2024-05-09T07:30:13.629Z,12
2024-05-09T07:31:10.938Z,14
2024-05-09T07:32:10.988Z,11
2024-05-09T07:33:11.058Z,15
2024-05-09T07:34:11.014Z,13
2024-05-09T07:35:10.963Z,14
2024-05-09T07:36:10.939Z,13
2024-05-09T07:37:10.949Z,14
2024-05-09T07:38:10.997Z,13
2024-05-09T07:39:10.936Z,15
2024-05-09T07:40:17.686Z,13
2024-05-09T07:41:10.989Z,13
2024-05-09T07:42:10.943Z,13
2024-05-09T07:43:10.953Z,16
2024-05-09T07:44:10.977Z,13
2024-05-09T07:45:29.677Z,12
2024-05-09T07:47:13.941Z,17
2024-05-09T07:48:27.522Z,14
2024-05-09T07:49:44.499Z,14
2024-05-09T07:50:55.132Z,12
2024-05-09T07:53:29.199Z,13
2024-05-09T07:53:37.109Z,12
2024-05-09T07:54:11.299Z,11
2024-05-09T07:55:11.133Z,13
2024-05-09T07:56:11.992Z,13
2024-05-09T07:57:10.973Z,14
2024-05-09T07:58:10.972Z,12
2024-05-09T07:59:10.944Z,13
2024-05-09T08:00:14.360Z,12
2024-05-09T08:01:11.075Z,13
2024-05-09T08:02:11.387Z,11
2024-05-09T08:03:10.980Z,13
2024-05-09T08:04:11.157Z,14
2024-05-09T08:05:11.154Z,12
2024-05-09T08:06:10.951Z,14
2024-05-09T08:07:11.053Z,12
2024-05-09T08:08:10.954Z,12
2024-05-09T08:09:16.677Z,11
2024-05-09T08:10:15.232Z,12
2024-05-09T08:11:11.003Z,14
2024-05-09T08:12:10.947Z,10
2024-05-09T08:13:11.124Z,12
2024-05-09T08:14:10.950Z,11
2024-05-09T08:15:10.944Z,10
2024-05-09T08:16:10.978Z,11
2024-05-09T08:17:11.018Z,13
2024-05-09T08:18:11.264Z,11
2024-05-09T08:19:11.053Z,11
2024-05-09T08:21:11.016Z,9
2024-05-09T08:22:11.005Z,13
2024-05-09T08:23:10.988Z,12
2024-05-09T08:24:10.958Z,11
2024-05-09T08:25:13.531Z,12
2024-05-09T08:26:10.949Z,11
2024-05-09T08:27:10.981Z,13
2024-05-09T08:28:11.074Z,11
2024-05-09T08:29:10.954Z,11
2024-05-09T08:30:18.827Z,9
2024-05-09T08:31:11.016Z,11
2024-05-09T08:32:10.968Z,8
2024-05-09T08:33:11.045Z,10
2024-05-09T08:34:11.081Z,10
2024-05-09T08:35:10.956Z,11
2024-05-09T08:36:10.972Z,12
2024-05-09T08:37:15.737Z,11
2024-05-09T08:38:11.086Z,11
2024-05-09T08:39:10.988Z,10
2024-05-09T08:40:19.741Z,10
2024-05-09T08:41:10.952Z,10
2024-05-09T08:42:10.959Z,10
2024-05-09T08:43:12.535Z,12
2024-05-09T08:44:10.958Z,9
2024-05-09T08:45:10.946Z,10
2024-05-09T08:46:11.058Z,11
2024-05-09T08:47:11.034Z,8
2024-05-09T08:48:11.091Z,10
2024-05-09T08:49:11.123Z,11
2024-05-09T08:50:16.697Z,9
2024-05-09T08:51:10.961Z,10
2024-05-09T08:52:11.051Z,10
2024-05-09T08:53:10.959Z,11
2024-05-09T08:54:10.970Z,9
2024-05-09T08:55:11.046Z,10
2024-05-09T08:56:11.051Z,8
2024-05-09T08:57:10.957Z,9
2024-05-09T08:58:11.096Z,11
2024-05-09T08:59:10.966Z,9
2024-05-09T09:00:15.040Z,12
2024-05-09T09:01:11.035Z,13
2024-05-09T09:02:11.026Z,10
2024-05-09T09:03:10.986Z,12
2024-05-09T09:04:11.108Z,13
2024-05-09T09:05:11.222Z,11
2024-05-09T09:06:11.039Z,11
2024-05-09T09:07:11.018Z,11
2024-05-09T09:08:10.966Z,9
2024-05-09T09:09:10.962Z,13
2024-05-09T09:10:17.680Z,8
2024-05-09T09:11:11.142Z,11
2024-05-09T09:12:10.962Z,10
2024-05-09T09:14:10.983Z,11
2024-05-09T09:15:10.962Z,13
2024-05-09T09:16:11.016Z,10
2024-05-09T09:17:10.994Z,10
2024-05-09T09:18:12.330Z,12
2024-05-09T09:19:11.263Z,11
2024-05-09T09:20:14.455Z,11
2024-05-09T09:21:10.981Z,11
2024-05-09T09:22:11.176Z,12
2024-05-09T09:23:10.960Z,11
2024-05-09T09:24:10.954Z,10
2024-05-09T09:25:11.089Z,11
2024-05-09T09:26:11.052Z,13
2024-05-09T09:27:10.971Z,10
2024-05-09T09:28:11.216Z,14
2024-05-09T09:29:11.254Z,10
2024-05-09T09:30:22.453Z,11
2024-05-09T09:31:11.112Z,10
2024-05-09T09:32:10.964Z,12
2024-05-09T09:33:11.293Z,11
2024-05-09T09:34:11.259Z,12
2024-05-09T09:35:11.352Z,10
2024-05-09T09:36:11.700Z,11
2024-05-09T09:37:11.136Z,9
2024-05-09T09:38:11.270Z,9
2024-05-09T09:39:10.977Z,10
2024-05-09T09:41:11.076Z,11
2024-05-09T09:42:10.977Z,10
2024-05-09T09:43:11.110Z,10
2024-05-09T09:44:10.974Z,10
2024-05-09T09:45:10.971Z,9
2024-05-09T09:46:12.748Z,7
2024-05-09T09:47:10.999Z,9
2024-05-09T09:48:11.150Z,11
2024-05-09T09:49:11.094Z,8
2024-05-09T09:50:14.495Z,9
2024-05-09T09:51:10.994Z,9
2024-05-09T09:52:11.360Z,9
2024-05-09T09:53:10.982Z,8
2024-05-09T09:54:10.982Z,9
2024-05-09T09:55:11.077Z,10
2024-05-09T09:56:10.983Z,10
2024-05-09T09:57:10.984Z,11
2024-05-09T09:58:14.059Z,11
2024-05-09T09:59:10.979Z,9
2024-05-09T10:00:12.002Z,10
2024-05-09T10:01:11.075Z,8
2024-05-09T10:02:11.248Z,8
2024-05-09T10:03:11.021Z,9
2024-05-09T10:04:11.095Z,9
2024-05-09T10:05:11.160Z,10
2024-05-09T10:06:10.983Z,9
2024-05-09T10:07:11.116Z,10
2024-05-09T10:08:10.989Z,9
2024-05-09T10:09:10.986Z,8
2024-05-09T10:10:16.079Z,9
2024-05-09T10:11:11.101Z,11
2024-05-09T10:12:11.202Z,9
2024-05-09T10:13:11.017Z,10
2024-05-09T10:14:10.999Z,8
2024-05-09T10:15:11.000Z,9
2024-05-09T10:16:11.393Z,9
2024-05-09T10:17:11.037Z,10
2024-05-09T10:18:11.284Z,8
2024-05-09T10:19:11.127Z,9
2024-05-09T10:20:18.351Z,8
2024-05-09T10:21:10.986Z,8
2024-05-09T10:22:11.110Z,12
2024-05-09T10:23:10.994Z,12
2024-05-09T10:24:10.987Z,6
2024-05-09T10:25:11.044Z,8
2024-05-09T10:26:10.992Z,9
2024-05-09T10:27:10.998Z,9
2024-05-09T10:28:11.154Z,9
2024-05-09T10:29:11.002Z,9
2024-05-09T10:30:17.712Z,8
2024-05-09T10:31:11.363Z,8
2024-05-09T10:32:11.003Z,7
2024-05-09T10:33:11.296Z,8
2024-05-09T10:34:11.208Z,8
2024-05-09T10:35:11.103Z,10
2024-05-09T10:36:10.997Z,9
2024-05-09T10:37:11.019Z,10
2024-05-09T10:38:11.014Z,10
2024-05-09T10:39:10.998Z,8
2024-05-09T10:40:17.263Z,11
2024-05-09T10:41:10.999Z,8
2024-05-09T10:42:11.004Z,9
2024-05-09T10:43:11.070Z,9
2024-05-09T10:44:10.999Z,8
2024-05-09T10:45:11.001Z,8
2024-05-09T10:46:11.383Z,9
2024-05-09T10:47:11.033Z,8
2024-05-09T10:48:11.154Z,11
2024-05-09T10:49:11.115Z,10
2024-05-09T10:50:18.535Z,8
2024-05-09T10:51:10.995Z,7
2024-05-09T10:52:11.043Z,8
2024-05-09T10:53:11.007Z,7
2024-05-09T10:54:11.001Z,8
2024-05-09T10:55:11.042Z,8
2024-05-09T10:56:11.003Z,7
2024-05-09T10:57:11.005Z,7
2024-05-09T10:58:11.047Z,8
2024-05-09T10:59:11.011Z,8
2024-05-09T11:00:18.952Z,8
2024-05-09T11:01:11.176Z,7
2024-05-09T11:02:11.300Z,8
2024-05-09T11:03:11.044Z,8
2024-05-09T11:04:11.098Z,9
2024-05-09T11:05:11.227Z,10
2024-05-09T11:06:11.012Z,8
2024-05-09T11:07:11.054Z,9
2024-05-09T11:08:11.009Z,8
2024-05-09T11:09:11.010Z,9
2024-05-09T11:10:14.532Z,8
2024-05-09T11:11:11.028Z,9
2024-05-09T11:12:11.065Z,8
2024-05-09T11:13:11.077Z,9
2024-05-09T11:14:11.018Z,8
2024-05-09T11:15:11.009Z,9
2024-05-09T11:16:11.077Z,9
2024-05-09T11:18:11.115Z,8
2024-05-09T11:19:11.158Z,6
2024-05-09T11:20:17.057Z,8
2024-05-09T11:21:11.019Z,11
2024-05-09T11:22:11.065Z,9
2024-05-09T11:23:11.032Z,7
2024-05-09T11:24:11.685Z,7
2024-05-09T11:25:11.108Z,8
2024-05-09T11:26:11.219Z,7
2024-05-09T11:27:11.029Z,9
2024-05-09T11:28:11.149Z,8
2024-05-09T11:29:11.035Z,7
2024-05-09T11:30:14.337Z,8
2024-05-09T11:31:11.254Z,8
2024-05-09T11:32:11.123Z,9
2024-05-09T11:33:11.054Z,9
2024-05-09T11:34:11.092Z,7
2024-05-09T11:35:11.029Z,7
2024-05-09T11:36:11.033Z,7
2024-05-09T11:37:11.053Z,13
2024-05-09T11:38:11.020Z,11
2024-05-09T11:39:11.025Z,8
2024-05-09T11:40:16.979Z,10
2024-05-09T11:41:11.029Z,8
2024-05-09T11:42:11.020Z,8
2024-05-09T11:43:11.058Z,10
2024-05-09T11:44:11.028Z,10
2024-05-09T11:45:11.030Z,9
2024-05-09T11:46:11.155Z,10
2024-05-09T11:47:11.031Z,9
2024-05-09T11:48:11.048Z,8
2024-05-09T11:49:11.162Z,6
2024-05-09T11:50:16.349Z,10
2024-05-09T11:51:11.039Z,12
2024-05-09T11:52:11.104Z,9
2024-05-09T11:53:11.049Z,8
2024-05-09T11:54:11.022Z,9
2024-05-09T11:55:11.212Z,9
2024-05-09T11:56:11.028Z,9
2024-05-09T11:57:11.040Z,8
2024-05-09T11:58:11.165Z,9
2024-05-09T11:59:11.027Z,8
2024-05-09T12:00:15.012Z,9
2024-05-09T12:01:11.141Z,10
2024-05-09T12:02:11.408Z,8
2024-05-09T12:03:11.087Z,9
2024-05-09T12:04:11.308Z,9
2024-05-09T12:05:11.171Z,7
2024-05-09T12:06:11.073Z,7
2024-05-09T12:07:13.032Z,7
2024-05-09T12:08:11.044Z,7
2024-05-09T12:09:11.038Z,7
2024-05-09T12:10:16.595Z,7
2024-05-09T12:11:11.143Z,8
2024-05-09T12:12:11.040Z,8
2024-05-09T12:13:11.084Z,8
2024-05-09T12:14:11.047Z,7
2024-05-09T12:15:11.028Z,9
2024-05-09T12:16:11.135Z,9
2024-05-09T12:17:11.076Z,8
2024-05-09T12:18:11.043Z,7
2024-05-09T12:19:11.133Z,8
2024-05-09T12:20:21.001Z,8
2024-05-09T12:21:11.032Z,6
2024-05-09T12:22:11.150Z,7
2024-05-09T12:23:11.159Z,8
2024-05-09T12:24:11.712Z,11
2024-05-09T12:25:11.114Z,8
2024-05-09T12:26:11.055Z,8
2024-05-09T12:27:11.041Z,8
2024-05-09T12:28:11.125Z,8
2024-05-09T12:29:11.042Z,7
2024-05-09T12:30:14.238Z,8
2024-05-09T12:31:11.103Z,8
2024-05-09T12:32:11.112Z,7
2024-05-09T12:33:12.368Z,8
2024-05-09T12:34:11.155Z,10
2024-05-09T12:35:11.050Z,8
2024-05-09T12:36:11.044Z,8
2024-05-09T12:37:11.209Z,7
2024-05-09T12:38:11.823Z,9
2024-05-09T12:39:11.063Z,7
2024-05-09T12:40:18.737Z,9
2024-05-09T12:41:11.083Z,7
2024-05-09T12:42:14.615Z,8
2024-05-09T12:43:11.778Z,8
2024-05-09T12:44:11.097Z,7
2024-05-09T12:45:11.045Z,8
2024-05-09T12:46:11.111Z,7
2024-05-09T12:47:11.060Z,7
2024-05-09T12:48:12.366Z,6
2024-05-09T12:49:11.768Z,7
2024-05-09T12:50:18.708Z,9
2024-05-09T12:51:11.054Z,7
2024-05-09T12:52:11.261Z,9
2024-05-09T12:53:11.048Z,7
2024-05-09T12:54:11.051Z,7
2024-05-09T12:55:11.100Z,7
2024-05-09T12:56:11.091Z,6
2024-05-09T12:57:11.070Z,7
2024-05-09T12:58:11.311Z,5
2024-05-09T12:59:11.063Z,8
2024-05-09T13:00:20.603Z,8
2024-05-09T13:01:11.138Z,7
2024-05-09T13:02:11.258Z,6
2024-05-09T13:03:11.186Z,6
2024-05-09T13:04:11.225Z,6
2024-05-09T13:05:11.228Z,6
2024-05-09T13:06:11.064Z,7
2024-05-09T13:07:11.159Z,8
2024-05-09T13:08:11.089Z,6
2024-05-09T13:09:11.081Z,5
2024-05-09T13:10:16.159Z,5
2024-05-09T13:11:11.120Z,8
2024-05-09T13:12:11.079Z,6
2024-05-09T13:13:11.310Z,7
2024-05-09T13:14:11.168Z,7
2024-05-09T13:15:11.056Z,6
2024-05-09T13:16:11.087Z,7
2024-05-09T13:17:11.080Z,7
2024-05-09T13:18:11.111Z,7
2024-05-09T13:19:11.135Z,6
2024-05-09T13:20:18.904Z,8
2024-05-09T13:21:11.085Z,9
2024-05-09T13:22:11.124Z,8
2024-05-09T13:23:11.073Z,8
2024-05-09T13:24:11.070Z,9
2024-05-09T13:25:11.943Z,7
2024-05-09T13:26:11.073Z,7
2024-05-09T13:27:12.284Z,7
2024-05-09T13:28:11.144Z,7
2024-05-09T13:29:11.073Z,6
2024-05-09T13:30:17.662Z,6
2024-05-09T13:32:11.091Z,6
2024-05-09T13:33:12.298Z,7
2024-05-09T13:34:11.162Z,4
2024-05-09T13:35:11.098Z,9
2024-05-09T13:36:11.083Z,8
2024-05-09T13:37:11.124Z,6
2024-05-09T13:38:11.108Z,8
2024-05-09T13:39:11.080Z,10
2024-05-09T13:40:14.216Z,7
2024-05-09T13:41:11.089Z,6
2024-05-09T13:42:11.072Z,8
2024-05-09T13:43:11.166Z,6
2024-05-09T13:44:11.079Z,7
2024-05-09T13:45:11.100Z,7
2024-05-09T13:46:11.124Z,7
2024-05-09T13:47:11.116Z,7
2024-05-09T13:48:11.190Z,6
2024-05-09T13:49:12.675Z,8
2024-05-09T13:50:16.940Z,6
2024-05-09T13:51:11.084Z,7
2024-05-09T13:52:11.153Z,8
2024-05-09T13:53:11.101Z,6
2024-05-09T13:54:11.084Z,3
2024-05-09T13:55:11.342Z,6
2024-05-09T13:56:11.088Z,7
2024-05-09T13:57:11.086Z,6
2024-05-09T13:58:11.105Z,5
2024-05-09T13:59:11.186Z,7
2024-05-09T14:00:22.902Z,7
2024-05-09T14:01:11.179Z,6
2024-05-09T14:02:11.297Z,6
2024-05-09T14:03:11.226Z,5
2024-05-09T14:04:11.299Z,7
2024-05-09T14:05:11.230Z,4
2024-05-09T14:06:13.190Z,6
2024-05-09T14:07:11.135Z,7
2024-05-09T14:08:11.146Z,5
2024-05-09T14:09:11.102Z,4
2024-05-09T14:10:19.834Z,6
2024-05-09T14:11:11.130Z,5
2024-05-09T14:12:11.711Z,4
2024-05-09T14:13:11.411Z,6
2024-05-09T14:14:11.104Z,5
2024-05-09T14:15:11.172Z,6
2024-05-09T14:16:11.147Z,4
2024-05-09T14:17:11.242Z,6
2024-05-09T14:18:13.597Z,4
2024-05-09T14:19:11.137Z,5
2024-05-09T14:20:14.096Z,5
2024-05-09T14:21:11.100Z,6
2024-05-09T14:22:11.397Z,6
2024-05-09T14:23:11.238Z,6
2024-05-09T14:24:11.102Z,4
2024-05-09T14:25:11.339Z,7
2024-05-09T14:26:11.092Z,6
2024-05-09T14:27:11.111Z,5
2024-05-09T14:28:13.193Z,5
2024-05-09T14:29:11.094Z,5
2024-05-09T14:30:18.274Z,5
2024-05-09T14:31:11.167Z,5
2024-05-09T14:32:11.100Z,7
2024-05-09T14:33:11.400Z,5
2024-05-09T14:34:11.442Z,5
2024-05-09T14:35:11.230Z,5
2024-05-09T14:36:11.102Z,4
2024-05-09T14:37:11.258Z,3
2024-05-09T14:38:11.109Z,6
2024-05-09T14:39:11.117Z,5
2024-05-09T14:40:25.950Z,7